Time;durP1;ratioP1;P1;durP2;ratioP2;P2;SDS_P1;SDS_P2;PMS_P1;PMS_P2;Temp;Humidity;BMP_temperature;BMP_pressure;BME280_temperature;BME280_humidity;BME280_pressure;Samples;Min_cycle;Max_cycle;Signal;HPM_P1;HPM_P2
2023/01/02 00:02:17;;;;;;;;;;;;;;;26.49;22.24;98868.81;4990817;28;20016;-87
2023/01/02 00:04:43;;;;;;;;;;;;;;;26.21;22.66;98879.84;4985968;28;19925;-87
2023/01/02 00:07:09;;;;;;;;;;;;;;;26.33;23.22;98853.84;4988961;28;20016;-87
2023/01/02 00:09:35;;;;;;;;;;;;;;;26.38;23.06;98854.16;4989487;28;20012;-87
2023/01/02 00:12:01;;;;;;;;;;;;;;;26.21;22.90;98848.88;4985607;28;19926;-87
2023/01/02 00:14:27;;;;;;;;;;;;;;;26.31;22.42;98847.84;4977596;28;19929;-87
2023/01/02 00:16:53;;;;;;;;;;;;;;;26.19;22.76;98840.81;4985608;28;20279;-87
2023/01/02 00:19:19;;;;;;;;;;;;;;;26.15;22.83;98836.50;4971914;28;19922;-87
2023/01/02 00:21:45;;;;;;;;;;;;;;;26.42;22.42;98835.16;4987823;28;19918;-87
2023/01/02 00:24:11;;;;;;;;;;;;;;;26.65;21.89;98837.91;4972623;28;20303;-87
2023/01/02 00:26:37;;;;;;;;;;;;;;;26.47;22.03;98840.28;4987560;28;19964;-87
2023/01/02 00:29:03;;;;;;;;;;;;;;;26.23;22.52;98838.75;4982495;28;19929;-87
2023/01/02 00:31:29;;;;;;;;;;;;;;;26.27;22.87;98827.44;4984721;28;19929;-87
2023/01/02 00:33:55;;;;;;;;;;;;;;;26.29;22.59;98828.59;4987213;28;20377;-87
2023/01/02 00:36:21;;;;;;;;;;;;;;;26.53;22.35;98834.97;4990371;28;19957;-87
2023/01/02 00:38:47;;;;;;;;;;;;;;;26.63;21.96;98840.38;4985590;28;19922;-87
2023/01/02 00:41:13;;;;;;;;;;;;;;;26.73;21.88;98833.72;4977694;28;19953;-87
2023/01/02 00:43:39;;;;;;;;;;;;;;;26.70;21.96;98836.59;4988338;28;19921;-87
2023/01/02 00:46:05;;;;;;;;;;;;;;;26.69;21.83;98838.66;4984267;28;19926;-87
2023/01/02 00:48:31;;;;;;;;;;;;;;;26.74;21.07;98837.34;4985165;28;19922;-86
2023/01/02 00:50:57;;;;;;;;;;;;;;;26.21;21.76;98841.19;4971197;28;19932;-87
2023/01/02 00:53:23;;;;;;;;;;;;;;;25.86;22.26;98838.97;4988550;28;20000;-86
2023/01/02 00:55:49;;;;;;;;;;;;;;;25.84;22.12;98841.44;4993050;28;20024;-87
2023/01/02 00:58:15;;;;;;;;;;;;;;;25.88;22.42;98834.50;4988927;28;20369;-87
2023/01/02 01:00:41;;;;;;;;;;;;;;;25.99;22.25;98828.72;4984787;28;19928;-86
2023/01/02 01:03:07;;;;;;;;;;;;;;;26.15;21.56;98831.66;4986762;28;20366;-86
2023/01/02 01:05:36;;;;;;;;;;;;;;;26.35;21.65;98826.06;4980940;28;19933;-87
2023/01/02 01:08:02;;;;;;;;;;;;;;;26.44;21.01;98815.81;4976381;28;19922;-86
2023/01/02 01:10:28;;;;;;;;;;;;;;;26.51;21.17;98812.84;4984326;28;20437;-86
2023/01/02 01:12:54;;;;;;;;;;;;;;;26.59;21.02;98805.84;4962539;28;20013;-86
2023/01/02 01:15:20;;;;;;;;;;;;;;;25.56;21.70;98813.78;4986745;28;20080;-86
2023/01/02 01:17:46;;;;;;;;;;;;;;;24.30;23.44;98822.66;4989639;28;20024;-87
2023/01/02 01:20:12;;;;;;;;;;;;;;;24.55;23.50;98811.97;4994019;28;20054;-87
2023/01/02 01:22:38;;;;;;;;;;;;;;;25.03;22.77;98812.56;4960608;28;19947;-86
2023/01/02 01:25:05;;;;;;;;;;;;;;;25.50;22.55;98812.66;4982218;28;20283;-87
2023/01/02 01:27:31;;;;;;;;;;;;;;;25.53;22.14;98806.22;4978835;28;20389;-86
2023/01/02 01:29:57;;;;;;;;;;;;;;;25.83;22.33;98801.28;4987837;28;19941;-87
2023/01/02 01:32:23;;;;;;;;;;;;;;;25.39;22.72;98799.53;4985160;28;19926;-87
2023/01/02 01:34:49;;;;;;;;;;;;;;;25.15;22.87;98802.75;4989708;28;19926;-87
2023/01/02 01:37:15;;;;;;;;;;;;;;;25.03;22.81;98811.75;4988089;28;20021;-87
2023/01/02 01:39:41;;;;;;;;;;;;;;;25.32;23.74;98799.66;4980630;28;19926;-87
2023/01/02 01:42:09;;;;;;;;;;;;;;;25.71;22.48;98806.69;4976393;28;19968;-87
2023/01/02 01:44:44;;;;;;;;;;;;;;;26.10;22.00;98798.38;4993171;28;19967;-87
2023/01/02 01:47:16;;;;;;;;;;;;;;;26.34;21.29;98805.56;4987173;28;19921;-87
2023/01/02 01:49:43;;;;;;;;;;;;;;;26.47;20.73;98808.50;4979660;28;20379;-87
2023/01/02 01:52:11;;;;;;;;;;;;;;;26.01;21.43;98804.56;4987246;28;19948;-87
2023/01/02 01:54:40;;;;;;;;;;;;;;;25.94;21.73;98801.88;4991018;28;19926;-87
2023/01/02 01:57:22;;;;;;;;;;;;;;;25.66;21.91;98799.53;4986028;28;19922;-87
2023/01/02 01:59:49;;;;;;;;;;;;;;;25.72;22.76;98799.88;4980162;28;20298;-87
2023/01/02 02:02:15;;;;;;;;;;;;;;;25.93;21.94;98794.63;4968681;28;19922;-87
2023/01/02 02:04:42;;;;;;;;;;;;;;;25.60;21.42;98789.22;4982362;28;20397;-87
2023/01/02 02:07:09;;;;;;;;;;;;;;;25.37;21.56;98789.94;4987591;28;20025;-87
2023/01/02 02:09:39;;;;;;;;;;;;;;;25.28;22.22;98793.28;4970087;28;19938;-87
2023/01/02 02:12:05;;;;;;;;;;;;;;;25.48;21.96;98789.81;4980033;28;19938;-86
2023/01/02 02:14:31;;;;;;;;;;;;;;;25.66;22.15;98784.69;4980727;28;20377;-86
2023/01/02 02:16:57;;;;;;;;;;;;;;;25.67;21.89;98783.47;4985766;28;19925;-87
2023/01/02 02:19:49;;;;;;;;;;;;;;;25.58;21.57;98786.03;4984732;28;19926;-87
2023/01/02 02:22:41;;;;;;;;;;;;;;;25.91;22.06;98774.56;4980015;28;19914;-87
2023/01/02 02:25:07;;;;;;;;;;;;;;;25.47;21.97;98785.41;4990621;28;20390;-87
2023/01/02 02:27:48;;;;;;;;;;;;;;;25.30;22.23;98784.44;4993109;28;19925;-87
2023/01/02 02:30:20;;;;;;;;;;;;;;;25.64;22.13;98781.50;4983599;28;19918;-87
2023/01/02 02:32:58;;;;;;;;;;;;;;;25.94;22.14;98770.91;4982621;28;19921;-86
2023/01/02 02:35:37;;;;;;;;;;;;;;;26.04;22.35;98778.34;4987851;28;19918;-87
2023/01/02 02:38:03;;;;;;;;;;;;;;;25.84;22.06;98780.34;4986874;28;19934;-87
2023/01/02 02:40:47;;;;;;;;;;;;;;;25.68;22.34;98785.03;4990503;28;19924;-87
2023/01/02 02:43:28;;;;;;;;;;;;;;;25.58;22.14;98786.03;4984247;28;19968;-86
2023/01/02 02:46:12;;;;;;;;;;;;;;;25.20;22.73;98780.59;4986909;28;19921;-86
2023/01/02 02:48:47;;;;;;;;;;;;;;;25.52;22.53;98784.91;4987936;28;19925;-86
2023/01/02 02:51:25;;;;;;;;;;;;;;;25.82;22.25;98777.16;4973149;28;19930;-86
2023/01/02 02:54:12;;;;;;;;;;;;;;;25.76;21.66;98772.47;4973769;28;19922;-86
2023/01/02 02:56:39;;;;;;;;;;;;;;;25.68;21.27;98768.97;4989787;28;20281;-86
2023/01/02 02:59:05;;;;;;;;;;;;;;;25.65;21.57;98780.28;4991826;28;19926;-86
2023/01/02 03:01:31;;;;;;;;;;;;;;;25.64;22.13;98773.06;4979458;28;19993;-87
2023/01/02 03:03:57;;;;;;;;;;;;;;;25.72;22.04;98764.06;4980856;28;20382;-86
2023/01/02 03:06:29;;;;;;;;;;;;;;;25.66;21.76;98771.41;4975842;28;19932;-86
2023/01/02 03:09:12;;;;;;;;;;;;;;;25.47;21.71;98760.91;4990824;28;19964;-86
2023/01/02 03:11:41;;;;;;;;;;;;;;;25.41;22.21;98756.97;4982978;28;19937;-86
2023/01/02 03:14:16;;;;;;;;;;;;;;;25.61;22.07;98757.84;4988894;28;19922;-86
2023/01/02 03:16:45;;;;;;;;;;;;;;;25.01;22.68;98758.81;4978443;28;19929;-86
2023/01/02 03:19:31;;;;;;;;;;;;;;;24.72;23.01;98766.78;4987320;28;20024;-86
2023/01/02 03:22:00;;;;;;;;;;;;;;;23.96;24.84;98758.09;4985021;28;19922;-86
2023/01/02 03:24:27;;;;;;;;;;;;;;;24.56;24.05;98765.81;4982224;28;19930;-86
2023/01/02 03:27:02;;;;;;;;;;;;;;;25.25;22.72;98756.81;4981760;28;19925;-86
2023/01/02 03:29:30;;;;;;;;;;;;;;;25.39;21.74;98756.59;4986797;28;19929;-86
2023/01/02 03:31:59;;;;;;;;;;;;;;;25.44;22.34;98756.13;4982879;28;19976;-86
2023/01/02 03:34:27;;;;;;;;;;;;;;;25.24;22.40;98750.41;4981915;28;20012;-87
2023/01/02 03:36:57;;;;;;;;;;;;;;;25.03;22.77;98747.13;4985754;28;20410;-87
2023/01/02 03:39:26;;;;;;;;;;;;;;;24.31;24.02;98742.88;4992067;28;20372;-87
2023/01/02 03:41:58;;;;;;;;;;;;;;;24.37;24.20;98750.41;4990589;28;20360;-87
2023/01/02 03:44:28;;;;;;;;;;;;;;;24.67;23.57;98747.59;4986554;28;20393;-87
2023/01/02 03:47:12;;;;;;;;;;;;;;;24.56;23.90;98746.97;4978076;28;19933;-87
2023/01/02 03:49:42;;;;;;;;;;;;;;;25.11;23.06;98743.78;4981373;28;20337;-87
2023/01/02 03:52:08;;;;;;;;;;;;;;;25.36;22.59;98747.00;4977098;28;19950;-87
2023/01/02 03:54:34;;;;;;;;;;;;;;;25.70;22.69;98732.75;4982168;28;19926;-87
2023/01/02 03:57:03;;;;;;;;;;;;;;;25.59;22.76;98739.81;4992500;28;19976;-87
2023/01/02 03:59:35;;;;;;;;;;;;;;;25.68;22.90;98746.47;4984845;28;20287;-87
2023/01/02 04:02:05;;;;;;;;;;;;;;;25.77;22.84;98735.44;4987791;28;20275;-87
2023/01/02 04:04:37;;;;;;;;;;;;;;;25.66;23.15;98734.06;4988977;28;20008;-87
2023/01/02 04:07:07;;;;;;;;;;;;;;;25.45;22.99;98735.22;4985317;28;19925;-87
2023/01/02 04:09:34;;;;;;;;;;;;;;;24.25;24.84;98745.34;4971683;28;19926;-87
2023/01/02 04:12:03;;;;;;;;;;;;;;;24.24;24.87;98746.56;4963637;28;20286;-87
2023/01/02 04:14:33;;;;;;;;;;;;;;;24.76;24.41;98740.69;4971618;28;19969;-87
2023/01/02 04:17:00;;;;;;;;;;;;;;;25.23;24.15;98751.63;4968927;28;20032;-87
2023/01/02 04:19:37;;;;;;;;;;;;;;;25.42;23.60;98750.91;4969383;28;19957;-86
2023/01/02 04:22:06;;;;;;;;;;;;;;;25.43;23.57;98754.50;4965950;28;20303;-87
2023/01/02 04:24:34;;;;;;;;;;;;;;;25.75;23.18;98745.53;4965399;28;19925;-87
2023/01/02 04:27:11;;;;;;;;;;;;;;;26.07;23.07;98746.53;4967766;28;19932;-87
2023/01/02 04:29:37;;;;;;;;;;;;;;;25.78;23.41;98751.13;4961897;28;19922;-87
2023/01/02 04:32:10;;;;;;;;;;;;;;;25.86;23.10;98749.75;4955631;28;19974;-87
2023/01/02 04:34:37;;;;;;;;;;;;;;;25.33;23.27;98753.47;4957700;28;19978;-87
2023/01/02 04:37:03;;;;;;;;;;;;;;;25.86;22.70;98744.13;4968598;28;20039;-88
2023/01/02 04:39:29;;;;;;;;;;;;;;;26.22;21.72;98747.06;4969627;28;19953;-87
2023/01/02 04:41:55;;;;;;;;;;;;;;;26.28;21.05;98736.88;4971871;28;19926;-87
2023/01/02 04:44:21;;;;;;;;;;;;;;;26.37;20.99;98741.97;4965733;28;19925;-88
2023/01/02 04:46:47;;;;;;;;;;;;;;;26.44;20.56;98745.41;4968350;28;19922;-88
2023/01/02 04:49:13;;;;;;;;;;;;;;;26.09;20.90;98740.50;4970740;28;19922;-87
2023/01/02 04:51:39;;;;;;;;;;;;;;;25.96;20.31;98734.69;4965188;28;19922;-87
2023/01/02 04:54:05;;;;;;;;;;;;;;;25.39;21.21;98736.91;4961465;28;19949;-87
2023/01/02 04:56:31;;;;;;;;;;;;;;;25.28;21.54;98737.09;4959355;28;20378;-87
2023/01/02 04:58:57;;;;;;;;;;;;;;;25.27;21.81;98740.31;4971709;28;19929;-87
2023/01/02 05:01:23;;;;;;;;;;;;;;;25.38;21.60;98724.06;4965152;28;19922;-87
2023/01/02 05:03:52;;;;;;;;;;;;;;;24.76;21.64;98721.84;4963905;28;19922;-87
2023/01/02 05:06:18;;;;;;;;;;;;;;;24.98;21.90;98717.50;4966834;28;19923;-87
2023/01/02 05:08:44;;;;;;;;;;;;;;;24.78;21.42;98713.00;4970630;28;19929;-87
2023/01/02 05:11:12;;;;;;;;;;;;;;;24.97;21.46;98715.13;4981490;28;19926;-87
2023/01/02 05:13:38;;;;;;;;;;;;;;;25.10;21.51;98716.09;4987271;28;20286;-87
2023/01/02 05:16:05;;;;;;;;;;;;;;;24.94;21.97;98722.38;4979575;28;19918;-87
2023/01/02 05:18:31;;;;;;;;;;;;;;;24.78;21.90;98701.75;4980335;28;19949;-87
2023/01/02 05:21:04;;;;;;;;;;;;;;;24.71;22.12;98703.41;4992174;28;20409;-86
2023/01/02 05:23:48;;;;;;;;;;;;;;;24.69;21.83;98697.44;4979976;28;19974;-91
2023/01/02 05:26:15;;;;;;;;;;;;;;;25.00;22.09;98695.38;4984624;28;19926;-92
2023/01/02 05:28:41;;;;;;;;;;;;;;;25.08;21.87;98688.44;4982493;28;19922;-91
2023/01/02 05:31:08;;;;;;;;;;;;;;;24.95;21.68;98695.84;4978865;28;19964;-90
2023/01/02 05:33:34;;;;;;;;;;;;;;;25.02;21.93;98684.50;4969268;28;19926;-93
2023/01/02 05:36:00;;;;;;;;;;;;;;;25.09;22.13;98681.59;4983872;28;19923;-90
2023/01/02 05:38:26;;;;;;;;;;;;;;;25.10;22.37;98674.75;4987600;28;19971;-89
2023/01/02 05:41:18;;;;;;;;;;;;;;;25.35;22.14;98675.13;4983131;28;20038;-90
2023/01/02 05:43:44;;;;;;;;;;;;;;;25.40;22.47;98671.03;4976210;28;19922;-90
2023/01/02 05:46:10;;;;;;;;;;;;;;;25.18;22.38;98681.81;4983974;28;19922;-90
2023/01/02 05:48:37;;;;;;;;;;;;;;;25.05;22.85;98680.84;4986603;28;20306;-91
2023/01/02 05:51:03;;;;;;;;;;;;;;;25.09;23.20;98675.97;4988382;28;19922;-93
2023/01/02 05:53:29;;;;;;;;;;;;;;;24.87;22.95;98674.72;4983826;28;19918;-93
2023/01/02 05:56:06;;;;;;;;;;;;;;;24.91;22.52;98683.88;4981731;28;19922;-95
2023/01/02 05:58:32;;;;;;;;;;;;;;;25.03;22.69;98686.13;4982806;28;19933;-94
2023/01/02 06:01:04;;;;;;;;;;;;;;;24.97;22.32;98684.22;4973949;28;19964;-96
2023/01/02 06:03:30;;;;;;;;;;;;;;;24.93;22.72;98683.47;4986018;28;19921;-91
2023/01/02 06:06:00;;;;;;;;;;;;;;;24.39;23.58;98679.81;4966056;28;19930;-89
2023/01/02 06:08:26;;;;;;;;;;;;;;;24.91;23.15;98675.47;4999694;28;20406;-88
2023/01/02 06:10:52;;;;;;;;;;;;;;;24.78;23.52;98679.28;4985195;28;19980;-89
2023/01/02 06:13:18;;;;;;;;;;;;;;;24.08;24.96;98672.63;4996947;28;19918;-89
2023/01/02 06:15:44;;;;;;;;;;;;;;;24.44;24.70;98670.91;4982772;28;19929;-88
2023/01/02 06:18:10;;;;;;;;;;;;;;;24.62;24.61;98672.25;4976684;28;19972;-89
2023/01/02 06:20:36;;;;;;;;;;;;;;;24.25;25.04;98675.19;4977612;28;19964;-89
2023/01/02 06:23:03;;;;;;;;;;;;;;;24.56;24.71;98673.16;4980424;28;19965;-89
2023/01/02 06:25:29;;;;;;;;;;;;;;;25.04;24.41;98679.25;4992373;28;19921;-87
2023/01/02 06:27:55;;;;;;;;;;;;;;;24.91;24.34;98681.09;4966789;28;19996;-89
2023/01/02 06:30:21;;;;;;;;;;;;;;;25.38;23.82;98670.66;4976743;28;20294;-89
2023/01/02 06:32:47;;;;;;;;;;;;;;;25.01;24.20;98674.50;4996569;28;19921;-88
2023/01/02 06:35:13;;;;;;;;;;;;;;;25.04;24.30;98682.06;4995832;28;20064;-88
2023/01/02 06:37:43;;;;;;;;;;;;;;;25.43;23.59;98670.16;4992685;28;20412;-88
2023/01/02 06:40:09;;;;;;;;;;;;;;;25.75;23.14;98664.75;4993043;28;19918;-89
2023/01/02 06:42:35;;;;;;;;;;;;;;;25.61;22.67;98665.03;4983150;28;19926;-89
2023/01/02 06:45:01;;;;;;;;;;;;;;;26.00;22.61;98659.44;4971029;28;20069;-89
2023/01/02 06:47:27;;;;;;;;;;;;;;;25.39;23.30;98670.22;4968142;28;19918;-89
2023/01/02 06:49:53;;;;;;;;;;;;;;;25.53;23.56;98669.22;4977332;28;20396;-89
2023/01/02 06:52:19;;;;;;;;;;;;;;;24.75;24.57;98680.91;4991291;28;19917;-89
2023/01/02 06:54:46;;;;;;;;;;;;;;;25.18;24.25;98675.44;4988434;28;20378;-89
2023/01/02 06:57:12;;;;;;;;;;;;;;;25.27;24.17;98679.28;4997863;28;19921;-89
2023/01/02 06:59:38;;;;;;;;;;;;;;;25.34;23.82;98675.56;4987929;28;20429;-89
2023/01/02 07:02:04;;;;;;;;;;;;;;;25.26;23.45;98677.69;4992948;28;19964;-89
2023/01/02 07:04:30;;;;;;;;;;;;;;;25.18;23.31;98675.44;4995200;28;19929;-89
2023/01/02 07:06:56;;;;;;;;;;;;;;;25.54;23.21;98675.63;4989064;28;19976;-89
2023/01/02 07:09:22;;;;;;;;;;;;;;;25.48;23.33;98678.16;4993556;28;19969;-89
2023/01/02 07:11:48;;;;;;;;;;;;;;;25.36;23.89;98675.91;4992665;28;19992;-89
2023/01/02 07:14:14;;;;;;;;;;;;;;;25.68;23.67;98686.59;4985414;28;19922;-89
2023/01/02 07:16:40;;;;;;;;;;;;;;;25.72;23.50;98692.97;4991940;28;19929;-89
2023/01/02 07:19:06;;;;;;;;;;;;;;;25.61;23.89;98689.53;4990800;28;19968;-89
2023/01/02 07:21:32;;;;;;;;;;;;;;;25.99;23.84;98699.28;4981924;28;19921;-89
2023/01/02 07:23:58;;;;;;;;;;;;;;;25.99;23.91;98700.06;4990583;28;19941;-89
2023/01/02 07:26:24;;;;;;;;;;;;;;;26.12;24.19;98696.63;4978510;28;19917;-90
2023/01/02 07:28:50;;;;;;;;;;;;;;;26.74;22.45;98700.09;4994359;28;19917;-89
2023/01/02 07:31:17;;;;;;;;;;;;;;;27.14;22.02;98692.28;4980540;28;19928;-89
2023/01/02 07:33:43;;;;;;;;;;;;;;;27.29;21.28;98690.72;4989912;28;19949;-89
2023/01/02 07:36:11;;;;;;;;;;;;;;;27.01;22.04;98691.41;4991879;28;19980;-90
2023/01/02 07:38:38;;;;;;;;;;;;;;;26.89;22.26;98689.28;4986450;28;20469;-89
2023/01/02 07:41:04;;;;;;;;;;;;;;;26.15;23.31;98690.13;4984520;28;19933;-89
2023/01/02 07:43:30;;;;;;;;;;;;;;;25.73;23.96;98686.91;4990569;28;19930;-89
2023/01/02 07:46:03;;;;;;;;;;;;;;;25.48;24.10;98691.41;4991333;28;20007;-88
2023/01/02 07:48:29;;;;;;;;;;;;;;;24.27;25.93;98698.00;4986699;28;19926;-89
2023/01/02 07:51:02;;;;;;;;;;;;;;;25.19;24.91;98691.88;4991011;28;19922;-89
2023/01/02 07:53:28;;;;;;;;;;;;;;;26.05;23.76;98695.50;4974960;28;19918;-89
2023/01/02 07:55:54;;;;;;;;;;;;;;;26.66;22.66;98695.84;4992055;28;20024;-89
2023/01/02 07:58:20;;;;;;;;;;;;;;;27.03;22.48;98694.59;4991206;28;20302;-89
2023/01/02 08:00:46;;;;;;;;;;;;;;;27.37;22.27;98706.28;4992883;28;19918;-89
2023/01/02 08:03:12;;;;;;;;;;;;;;;27.59;22.05;98695.22;4983750;28;20317;-89
2023/01/02 08:05:39;;;;;;;;;;;;;;;27.85;21.88;98699.75;4994302;28;20302;-89
2023/01/02 08:08:05;;;;;;;;;;;;;;;27.79;21.80;98693.06;4989924;28;19943;-89
2023/01/02 08:10:31;;;;;;;;;;;;;;;27.90;21.69;98698.41;4989722;28;19926;-89
2023/01/02 08:12:57;;;;;;;;;;;;;;;28.02;21.72;98687.22;4991562;28;19926;-89
2023/01/02 08:15:24;;;;;;;;;;;;;;;28.17;21.43;98700.91;4990316;28;19942;-89
2023/01/02 08:17:50;;;;;;;;;;;;;;;28.11;21.06;98697.03;4988765;28;19936;-88
2023/01/02 08:20:16;;;;;;;;;;;;;;;28.06;20.84;98699.19;4994205;28;19928;-89
2023/01/02 08:22:42;;;;;;;;;;;;;;;27.96;21.24;98694.59;4993136;28;19975;-89
2023/01/02 08:25:08;;;;;;;;;;;;;;;27.48;21.13;98693.91;4987365;28;20394;-88
2023/01/02 08:27:34;;;;;;;;;;;;;;;27.28;21.30;98694.75;4989706;28;19929;-93
2023/01/02 08:30:01;;;;;;;;;;;;;;;27.28;21.64;98702.47;4987812;28;19922;-90
2023/01/02 08:32:27;;;;;;;;;;;;;;;27.32;21.84;98694.69;4989336;28;20334;-89
2023/01/02 08:34:53;;;;;;;;;;;;;;;27.38;21.72;98698.59;4967104;28;19922;-88
2023/01/02 08:37:19;;;;;;;;;;;;;;;27.42;21.58;98697.25;4985856;28;20020;-88
2023/01/02 08:39:45;;;;;;;;;;;;;;;27.13;21.54;98689.94;4985724;28;19922;-90
2023/01/02 08:42:11;;;;;;;;;;;;;;;27.31;22.04;98695.91;4986841;28;19930;-90
2023/01/02 08:44:37;;;;;;;;;;;;;;;26.90;21.75;98693.72;4984064;28;19934;-89
2023/01/02 08:47:04;;;;;;;;;;;;;;;26.22;22.98;98692.78;4986823;28;20023;-89
2023/01/02 08:49:30;;;;;;;;;;;;;;;26.04;23.18;98688.28;4989556;28;19977;-89
2023/01/02 08:51:56;;;;;;;;;;;;;;;26.42;22.96;98691.53;4988404;28;20028;-89
2023/01/02 08:54:22;;;;;;;;;;;;;;;26.79;22.86;98692.38;4987452;28;20037;-90
2023/01/02 08:56:48;;;;;;;;;;;;;;;26.85;22.42;98687.78;4985479;28;19921;-89
2023/01/02 08:59:14;;;;;;;;;;;;;;;26.86;22.90;98697.84;4986993;28;19981;-90
2023/01/02 09:01:40;;;;;;;;;;;;;;;27.11;23.31;98687.56;4985168;28;19921;-90
2023/01/02 09:04:07;;;;;;;;;;;;;;;27.36;22.88;98684.09;4983988;28;19930;-90
2023/01/02 09:06:34;;;;;;;;;;;;;;;27.30;23.05;98681.03;4987560;28;19924;-90
2023/01/02 09:09:00;;;;;;;;;;;;;;;27.43;23.47;98678.31;4984887;28;19964;-90
2023/01/02 09:11:31;;;;;;;;;;;;;;;27.69;22.84;98677.22;4990265;28;19941;-93
2023/01/02 09:13:58;;;;;;;;;;;;;;;27.91;23.41;98666.91;4988269;28;22206;-94
2023/01/02 09:16:24;;;;;;;;;;;;;;;28.30;22.75;98667.84;4982971;28;19926;-90
2023/01/02 09:18:50;;;;;;;;;;;;;;;28.51;22.85;98667.19;4986674;28;20016;-90
2023/01/02 09:21:16;;;;;;;;;;;;;;;28.10;22.99;98656.72;4968559;28;19936;-91
2023/01/02 09:23:42;;;;;;;;;;;;;;;28.02;23.69;98658.97;4984446;28;20084;-91
2023/01/02 09:26:09;;;;;;;;;;;;;;;27.97;24.28;98645.38;4992380;28;19937;-91
2023/01/02 09:28:35;;;;;;;;;;;;;;;27.24;25.09;98648.16;4987489;28;19924;-90
2023/01/02 09:31:06;;;;;;;;;;;;;;;27.34;24.48;98645.06;4981888;28;20383;-91
2023/01/02 09:33:32;;;;;;;;;;;;;;;27.36;24.68;98641.81;4982004;28;20379;-91
2023/01/02 09:36:05;;;;;;;;;;;;;;;27.18;24.70;98633.03;4989706;28;19926;-91
2023/01/02 09:38:31;;;;;;;;;;;;;;;27.13;24.97;98634.34;4987180;28;19948;-91
2023/01/02 09:40:59;;;;;;;;;;;;;;;27.18;24.74;98621.75;4994590;28;19969;-91
2023/01/02 09:43:44;;;;;;;;;;;;;;;28.12;23.81;98619.59;4986263;28;19925;-93
2023/01/02 09:46:19;;;;;;;;;;;;;;;27.02;25.76;98618.94;4991844;28;19922;-90
2023/01/02 09:48:45;;;;;;;;;;;;;;;28.23;23.81;98626.50;4985542;28;19929;-90
2023/01/02 09:51:11;;;;;;;;;;;;;;;28.88;23.04;98621.22;4990012;28;20389;-90
2023/01/02 09:53:37;;;;;;;;;;;;;;;29.18;22.58;98626.28;4989119;28;19930;-90
2023/01/02 09:56:03;;;;;;;;;;;;;;;29.01;23.64;98619.16;4990155;28;19959;-90
2023/01/02 09:58:49;;;;;;;;;;;;;;;29.20;23.96;98618.13;4980311;28;19956;-90
2023/01/02 10:01:25;;;;;;;;;;;;;;;29.67;23.99;98603.94;4987494;28;19921;-90
2023/01/02 10:04:18;;;;;;;;;;;;;;;30.25;23.21;98604.19;4986850;28;19925;-90
2023/01/02 10:06:48;;;;;;;;;;;;;;;30.51;22.22;98610.50;4984546;28;19922;-90
2023/01/02 10:09:20;;;;;;;;;;;;;;;30.42;23.11;98601.94;4987937;28;19926;-90
2023/01/02 10:11:46;;;;;;;;;;;;;;;30.65;22.67;98610.72;4985447;28;19929;-90
2023/01/02 10:14:37;;;;;;;;;;;;;;;30.79;23.10;98606.50;4988852;28;20009;-90
2023/01/02 10:17:06;;;;;;;;;;;;;;;30.14;23.39;98592.50;4988903;28;19933;-90
2023/01/02 10:19:44;;;;;;;;;;;;;;;30.35;22.95;98588.06;4986064;28;20345;-88
2023/01/02 10:22:16;;;;;;;;;;;;;;;30.34;23.04;98587.25;4986312;28;19926;-88
2023/01/02 10:24:42;;;;;;;;;;;;;;;30.20;23.13;98578.53;4990527;28;19921;-88
2023/01/02 10:27:11;;;;;;;;;;;;;;;30.42;22.60;98580.06;4984664;28;20338;-87
2023/01/02 10:29:41;;;;;;;;;;;;;;;30.62;22.54;98577.63;4988835;28;20336;-87
2023/01/02 10:32:27;;;;;;;;;;;;;;;30.44;21.73;98579.59;4984825;28;19917;-87
2023/01/02 10:35:02;;;;;;;;;;;;;;;30.68;22.69;98572.94;4988187;28;19930;-88
2023/01/02 10:37:28;;;;;;;;;;;;;;;30.60;22.66;98574.47;4988826;28;19922;-87
2023/01/02 10:39:54;;;;;;;;;;;;;;;30.60;22.56;98565.97;4989183;28;19972;-86
2023/01/02 10:42:20;;;;;;;;;;;;;;;30.01;22.70;98557.81;4969373;28;21284;-88
2023/01/02 10:44:46;;;;;;;;;;;;;;;30.66;22.68;98557.66;4985679;28;19922;-87
2023/01/02 10:47:39;;;;;;;;;;;;;;;30.89;21.91;98564.81;4983009;28;20005;-87
2023/01/02 10:50:06;;;;;;;;;;;;;;;31.19;22.50;98552.56;4981465;28;20305;-87
2023/01/02 10:52:33;;;;;;;;;;;;;;;31.09;22.53;98553.81;4992098;28;20065;-87
2023/01/02 10:55:00;;;;;;;;;;;;;;;30.97;22.60;98541.34;4992896;28;19984;-87
2023/01/02 10:57:52;;;;;;;;;;;;;;;30.57;22.89;98540.63;4987146;28;19922;-87
2023/01/02 11:00:18;;;;;;;;;;;;;;;30.39;23.92;98529.19;4969950;28;19922;-87
2023/01/02 11:02:51;;;;;;;;;;;;;;;30.20;23.49;98524.72;4985370;28;19933;-87
2023/01/02 11:05:19;;;;;;;;;;;;;;;30.85;22.08;98522.41;4988546;28;19928;-87
2023/01/02 11:07:46;;;;;;;;;;;;;;;30.49;22.09;98523.13;4987222;28;20409;-86
2023/01/02 11:10:37;;;;;;;;;;;;;;;30.85;21.29;98522.41;4981080;28;19926;-87
2023/01/02 11:13:14;;;;;;;;;;;;;;;30.60;22.64;98523.44;4977780;28;19927;-86
2023/01/02 11:15:48;;;;;;;;;;;;;;;30.99;22.94;98512.53;4977819;28;20310;-87
2023/01/02 11:18:33;;;;;;;;;;;;;;;31.40;21.29;98515.53;4978340;28;19926;-87
2023/01/02 11:21:03;;;;;;;;;;;;;;;31.45;21.37;98511.31;4974856;28;19925;-87
2023/01/02 11:23:33;;;;;;;;;;;;;;;31.56;21.35;98507.97;4981370;28;19926;-87
2023/01/02 11:26:00;;;;;;;;;;;;;;;31.48;21.80;98496.19;4986741;28;19928;-87
2023/01/02 11:28:27;;;;;;;;;;;;;;;31.93;21.09;98501.75;4993890;28;19922;-87
2023/01/02 11:30:59;;;;;;;;;;;;;;;31.80;20.93;98498.31;4979343;28;19926;-87
2023/01/02 11:33:26;;;;;;;;;;;;;;;32.27;21.86;98496.91;4990381;28;19969;-87
2023/01/02 11:35:55;;;;;;;;;;;;;;;31.68;22.23;98492.81;4992306;28;20345;-87
2023/01/02 11:38:24;;;;;;;;;;;;;;;31.77;21.17;98487.91;4986456;28;20017;-87
2023/01/02 11:40:52;;;;;;;;;;;;;;;31.72;22.77;98479.22;4990556;28;19933;-87
2023/01/02 11:46:12;;;;;;;;;;;;;;;30.86;21.37;98472.94;4981059;28;19991;-88
2023/01/02 11:48:38;;;;;;;;;;;;;;;31.12;21.90;98468.56;4988723;28;20417;-87
2023/01/02 11:51:08;;;;;;;;;;;;;;;30.92;21.45;98473.16;4986372;28;20036;-87
2023/01/02 11:53:40;;;;;;;;;;;;;;;31.10;22.11;98473.94;4980550;28;19925;-87
2023/01/02 11:56:12;;;;;;;;;;;;;;;30.64;22.12;98467.38;4983759;28;19945;-87
2023/01/02 11:58:51;;;;;;;;;;;;;;;31.29;22.14;98460.53;4985059;28;19937;-87
2023/01/02 12:01:23;;;;;;;;;;;;;;;31.70;21.30;98468.38;4986580;28;19929;-87
2023/01/02 12:03:50;;;;;;;;;;;;;;;32.00;21.08;98458.81;4981892;28;19918;-87
2023/01/02 12:06:22;;;;;;;;;;;;;;;32.09;20.50;98460.88;4979361;28;19926;-87
2023/01/02 12:09:10;;;;;;;;;;;;;;;30.94;21.41;98460.06;4983248;28;19925;-87
2023/01/02 12:11:45;;;;;;;;;;;;;;;31.05;22.90;98459.59;4984311;28;19922;-86
2023/01/02 12:14:13;;;;;;;;;;;;;;;30.98;21.71;98465.56;4989613;28;20343;-86
2023/01/02 12:16:54;;;;;;;;;;;;;;;31.80;21.15;98467.09;4989975;28;19922;-85
2023/01/02 12:19:20;;;;;;;;;;;;;;;32.01;20.33;98460.41;4993344;28;19944;-87
2023/01/02 12:22:09;;;;;;;;;;;;;;;32.20;19.89;98448.97;4985450;28;19918;-87
2023/01/02 12:24:54;;;;;;;;;;;;;;;32.11;20.89;98452.63;4948532;28;19930;-87
2023/01/02 12:27:20;;;;;;;;;;;;;;;32.15;19.93;98453.25;4992712;28;19930;-87
2023/01/02 12:29:52;;;;;;;;;;;;;;;31.84;20.99;98444.19;4994165;28;19921;-87
2023/01/02 12:32:29;;;;;;;;;;;;;;;31.84;20.06;98450.66;4980558;28;20008;-87
2023/01/02 12:34:55;;;;;;;;;;;;;;;31.89;20.44;98452.84;4975068;28;19972;-87
2023/01/02 12:37:27;;;;;;;;;;;;;;;31.69;20.55;98446.94;4988035;28;20370;-87
2023/01/02 12:39:53;;;;;;;;;;;;;;;31.93;20.77;98441.28;4976242;28;19926;-87
2023/01/02 12:42:25;;;;;;;;;;;;;;;31.95;20.38;98448.06;4981033;28;19925;-87
2023/01/02 12:44:58;;;;;;;;;;;;;;;32.25;20.75;98446.25;4973594;28;19925;-87
2023/01/02 12:47:27;;;;;;;;;;;;;;;32.36;20.86;98435.13;4975136;28;20306;-87
2023/01/02 12:50:18;;;;;;;;;;;;;;;32.06;21.80;98450.44;4985222;28;19944;-87
2023/01/02 12:52:44;;;;;;;;;;;;;;;31.76;21.17;98454.31;4990691;28;19925;-87
2023/01/02 12:55:16;;;;;;;;;;;;;;;31.86;21.05;98450.94;4975010;28;19923;-87
2023/01/02 12:57:48;;;;;;;;;;;;;;;32.26;21.63;98442.13;4983834;28;20012;-87
2023/01/02 13:00:16;;;;;;;;;;;;;;;32.43;21.49;98451.84;4986998;28;20013;-87
2023/01/02 13:03:01;;;;;;;;;;;;;;;32.63;21.20;98442.72;4977659;28;19921;-86